Time;durP1;ratioP1;P1;durP2;ratioP2;P2;SDS_P1;SDS_P2;PMS_P1;PMS_P2;Temp;Humidity;BMP_temperature;BMP_pressure;BME280_temperature;BME280_humidity;BME280_pressure;Samples;Min_cycle;Max_cycle;Signal;HPM_P1;HPM_P2
2022/05/04 00:00:09;;;;;;;0.75;0.50;;;;;;;2.64;50.36;100492.72;5097017;28;20042;-77
2022/05/04 00:02:41;;;;;;;1.00;0.50;;;;;;;2.56;50.10;100495.72;5097781;28;20027;-78
2022/05/04 00:05:07;;;;;;;1.20;0.40;;;;;;;2.52;50.24;100493.72;5095129;28;20080;-78
2022/05/04 00:07:33;;;;;;;0.55;0.43;;;;;;;2.46;50.38;100495.50;5110728;28;20039;-77
2022/05/04 00:09:59;;;;;;;0.40;0.40;;;;;;;2.43;50.22;100498.66;5107459;28;20040;-77
2022/05/04 00:12:25;;;;;;;0.70;0.50;;;;;;;2.36;50.19;100503.34;5113936;28;20039;-77
2022/05/04 00:14:51;;;;;;;2.25;0.60;;;;;;;2.34;50.26;100500.03;5113595;28;20570;-77
2022/05/04 00:17:16;;;;;;;2.60;0.60;;;;;;;2.31;50.66;100506.75;5107541;28;20055;-77
2022/05/04 00:19:42;;;;;;;0.43;0.43;;;;;;;2.30;50.99;100502.38;5098149;28;20406;-77
2022/05/04 00:22:08;;;;;;;0.43;0.40;;;;;;;2.40;50.35;100505.34;5095795;28;20036;-77
2022/05/04 00:24:33;;;;;;;0.63;0.47;;;;;;;2.37;50.58;100507.69;5076057;28;20047;-77
2022/05/04 00:26:59;;;;;;;0.57;0.57;;;;;;;2.34;50.72;100508.16;5094231;28;20524;-77
2022/05/04 00:29:25;;;;;;;2.05;0.80;;;;;;;2.35;50.79;100509.81;5076931;28;20047;-77
2022/05/04 00:31:50;;;;;;;2.50;0.50;;;;;;;2.30;50.94;100509.69;5103044;28;20417;-77
2022/05/04 00:34:16;;;;;;;0.73;0.60;;;;;;;2.28;50.52;100522.63;5114447;28;20078;-77
2022/05/04 00:36:41;;;;;;;1.30;0.50;;;;;;;2.24;50.69;100518.69;5096516;28;20051;-77
2022/05/04 00:39:07;;;;;;;0.63;0.55;;;;;;;2.20;50.83;100525.63;5108753;28;20519;-77
2022/05/04 00:41:33;;;;;;;1.38;0.50;;;;;;;2.22;50.91;100510.00;5113888;28;20472;-77
2022/05/04 00:43:58;;;;;;;1.33;0.50;;;;;;;2.23;50.96;100517.06;5113527;28;20050;-77
2022/05/04 00:46:24;;;;;;;2.05;0.50;;;;;;;2.22;50.95;100524.34;5104821;28;20047;-77
2022/05/04 00:48:49;;;;;;;0.40;0.40;;;;;;;2.17;50.99;100526.09;5092917;28;20130;-77
2022/05/04 00:51:15;;;;;;;0.57;0.43;;;;;;;2.15;51.58;100530.91;5092199;28;20406;-77
2022/05/04 00:53:42;;;;;;;0.30;0.30;;;;;;;2.09;51.46;100533.50;5094411;28;20043;-77
2022/05/04 00:56:09;;;;;;;1.55;0.50;;;;;;;2.03;51.54;100534.38;5093218;28;20038;-77
2022/05/04 01:01:24;;;;;;;0.95;0.60;;;;;;;1.98;51.38;100545.06;5107968;28;20040;-77
2022/05/04 01:03:50;;;;;;;0.55;0.47;;;;;;;1.98;52.26;100541.53;5092665;28;20054;-77
2022/05/04 01:06:16;;;;;;;1.85;0.52;;;;;;;1.99;52.00;100551.31;5092340;28;20039;-77
2022/05/04 01:08:41;;;;;;;1.33;0.77;;;;;;;1.95;51.88;100553.66;5106757;28;20046;-77
2022/05/04 01:11:07;;;;;;;0.90;0.45;;;;;;;1.94;51.97;100549.28;5098754;28;20101;-76
2022/05/04 01:13:33;;;;;;;1.27;0.80;;;;;;;1.92;52.11;100553.28;5100060;28;20059;-77
2022/05/04 01:15:58;;;;;;;2.75;0.60;;;;;;;1.92;51.96;100556.81;5098868;28;20066;-76
2022/05/04 01:18:24;;;;;;;0.40;0.40;;;;;;;1.89;52.23;100561.81;5092228;28;20040;-77
2022/05/04 01:20:49;;;;;;;0.40;0.40;;;;;;;1.96;51.95;100558.00;5092885;28;20089;-77
2022/05/04 01:23:16;;;;;;;1.92;0.60;;;;;;;1.93;51.67;100555.75;5092978;28;20043;-78
2022/05/04 01:25:41;;;;;;;0.70;0.60;;;;;;;1.91;51.84;100568.69;5093282;28;20139;-78
2022/05/04 01:28:07;;;;;;;1.08;0.50;;;;;;;1.85;51.62;100571.47;5093455;28;20122;-77
2022/05/04 01:30:35;;;;;;;1.85;0.50;;;;;;;1.88;52.12;100571.00;5075608;28;20126;-77
2022/05/04 01:33:01;;;;;;;2.33;0.47;;;;;;;1.90;51.99;100580.53;5110877;28;20444;-77
2022/05/04 01:35:26;;;;;;;1.10;0.50;;;;;;;1.83;52.52;100582.50;5112964;28;20038;-77
2022/05/04 01:37:52;;;;;;;2.05;0.80;;;;;;;1.77;52.59;100586.13;5104296;28;20079;-77
2022/05/04 01:40:18;;;;;;;1.63;0.60;;;;;;;1.75;52.47;100580.13;5093310;28;20039;-77
2022/05/04 01:42:43;;;;;;;1.13;0.60;;;;;;;1.74;52.84;100589.28;5103638;28;20601;-77
2022/05/04 01:45:09;;;;;;;0.40;0.40;;;;;;;1.72;52.92;100584.06;5112784;28;20055;-77
2022/05/04 01:47:36;;;;;;;1.17;0.73;;;;;;;1.75;52.60;100585.53;5105976;28;20067;-78
2022/05/04 01:50:03;;;;;;;1.50;0.60;;;;;;;1.75;52.64;100593.63;5092627;28;20059;-78
2022/05/04 01:52:29;;;;;;;0.68;0.50;;;;;;;1.74;52.79;100590.09;5104398;28;20508;-77
2022/05/04 01:54:55;;;;;;;1.08;0.77;;;;;;;1.66;52.99;100595.78;5092453;28;20093;-77
2022/05/04 01:57:22;;;;;;;0.98;0.50;;;;;;;1.64;52.95;100599.78;5096668;28;20418;-77
2022/05/04 01:59:48;;;;;;;0.77;0.60;;;;;;;1.56;52.97;100591.94;5074028;28;20040;-77
2022/05/04 02:02:13;;;;;;;0.50;0.50;;;;;;;1.52;52.99;100597.78;5092248;28;20036;-77
2022/05/04 02:04:39;;;;;;;1.48;0.80;;;;;;;1.55;53.01;100611.91;5091596;28;20070;-77
2022/05/04 02:07:08;;;;;;;1.20;0.82;;;;;;;1.54;53.28;100610.25;5092278;28;20085;-76
2022/05/04 02:09:35;;;;;;;1.00;0.60;;;;;;;1.52;53.27;100603.19;5090794;28;20063;-77
2022/05/04 02:12:02;;;;;;;1.67;0.80;;;;;;;1.55;53.33;100604.63;5090828;28;20493;-76
2022/05/04 02:14:27;;;;;;;1.25;0.80;;;;;;;1.54;52.90;100608.38;5092761;28;20063;-76
2022/05/04 02:16:53;;;;;;;1.40;0.68;;;;;;;1.50;53.03;100612.59;5098933;28;20063;-76
2022/05/04 02:19:19;;;;;;;3.05;0.98;;;;;;;1.49;53.41;100619.88;5116561;28;20448;-77
2022/05/04 02:21:45;;;;;;;2.05;0.68;;;;;;;1.49;53.21;100619.88;5116582;28;20038;-77
2022/05/04 02:24:10;;;;;;;0.80;0.68;;;;;;;1.45;53.17;100615.16;5107746;28;20052;-76
2022/05/04 02:26:36;;;;;;;2.85;0.80;;;;;;;1.45;52.95;100624.09;5097249;28;20456;-77
2022/05/04 02:29:01;;;;;;;0.85;0.52;;;;;;;1.43;53.47;100625.34;5080428;28;20501;-76
2022/05/04 02:31:27;;;;;;;1.00;0.60;;;;;;;1.44;53.28;100635.13;5108395;28;20036;-76
2022/05/04 02:33:53;;;;;;;0.55;0.55;;;;;;;1.42;53.31;100635.34;5102903;28;20044;-76
2022/05/04 02:39:02;;;;;;;1.20;0.60;;;;;;;1.41;53.17;100647.22;5096022;28;20044;-76
2022/05/04 02:41:28;;;;;;;1.92;0.60;;;;;;;1.38;53.25;100653.03;5095789;28;20383;-76
2022/05/04 02:43:53;;;;;;;3.15;0.73;;;;;;;1.38;53.43;100660.31;5095820;28;20070;-76
2022/05/04 02:46:20;;;;;;;0.85;0.60;;;;;;;1.37;52.98;100664.06;5110856;28;20031;-77
2022/05/04 02:48:46;;;;;;;1.90;1.08;;;;;;;1.31;53.08;100664.97;5114844;28;20036;-78
2022/05/04 02:51:12;;;;;;;0.88;0.70;;;;;;;1.33;53.33;100662.88;5096964;28;20036;-76
2022/05/04 02:53:38;;;;;;;3.05;0.75;;;;;;;1.28;53.06;100666.22;5101208;28;20126;-77
2022/05/04 02:56:05;;;;;;;1.73;0.70;;;;;;;1.32;52.90;100672.03;5108169;28;20126;-77
2022/05/04 02:58:31;;;;;;;1.45;0.70;;;;;;;1.37;52.96;100661.38;5103784;28;20044;-76
2022/05/04 03:04:06;;;;;;;1.45;0.50;;;;;;;1.49;52.72;100673.13;5101971;28;20044;-76
2022/05/04 03:06:32;;;;;;;1.27;0.57;;;;;;;1.49;52.65;100676.66;5094594;28;20036;-76
2022/05/04 03:08:58;;;;;;;1.83;0.60;;;;;;;1.48;52.85;100676.88;5095039;28;20123;-77
2022/05/04 03:14:08;;;;;;;0.40;0.40;;;;;;;1.54;52.65;100677.88;5098228;28;20044;-77
2022/05/04 03:16:36;;;;;;;0.98;0.60;;;;;;;1.58;52.17;100682.63;5112479;28;20062;-77
2022/05/04 03:19:03;;;;;;;0.50;0.43;;;;;;;1.59;52.21;100688.88;5094404;28;20127;-76
2022/05/04 03:21:28;;;;;;;0.60;0.52;;;;;;;1.60;51.94;100690.53;5095208;28;20046;-77
2022/05/04 03:23:54;;;;;;;0.73;0.70;;;;;;;1.60;52.17;100693.22;5094535;28;20127;-77
2022/05/04 03:26:20;;;;;;;0.65;0.40;;;;;;;1.61;51.94;100695.72;5109808;28;20556;-77
2022/05/04 03:28:45;;;;;;;1.15;0.60;;;;;;;1.58;51.95;100701.56;5099410;28;20052;-77
2022/05/04 03:31:12;;;;;;;1.33;0.60;;;;;;;1.57;52.02;100708.03;5108525;28;20054;-76
2022/05/04 03:33:37;;;;;;;2.03;1.00;;;;;;;1.60;52.05;100717.56;5101974;28;20059;-77
2022/05/04 03:36:03;;;;;;;0.82;0.65;;;;;;;1.60;51.99;100706.75;5106460;28;20126;-77
2022/05/04 03:38:29;;;;;;;1.05;0.50;;;;;;;1.58;51.84;100716.97;5115447;28;20093;-76
2022/05/04 03:40:54;;;;;;;0.88;0.55;;;;;;;1.58;51.88;100720.50;5101615;28;20036;-77
2022/05/04 03:43:20;;;;;;;0.85;0.55;;;;;;;1.61;52.14;100717.34;5094370;28;20093;-77
2022/05/04 03:45:46;;;;;;;0.90;0.52;;;;;;;1.63;51.95;100728.78;5097700;28;20032;-76
2022/05/04 03:48:11;;;;;;;1.80;0.77;;;;;;;1.71;51.90;100725.78;5096288;28;20134;-77
2022/05/04 03:50:37;;;;;;;0.95;0.80;;;;;;;1.79;52.34;100732.81;5104587;28;20032;-76
2022/05/04 03:53:02;;;;;;;1.58;0.70;;;;;;;1.86;51.53;100733.56;5105619;28;20119;-77
2022/05/04 03:55:28;;;;;;;3.08;0.98;;;;;;;1.91;51.67;100735.59;5080416;28;20424;-77
2022/05/04 03:57:54;;;;;;;1.25;0.57;;;;;;;1.95;51.37;100740.38;5094363;28;20043;-77
2022/05/04 04:00:19;;;;;;;0.77;0.40;;;;;;;1.93;51.36;100747.06;5093697;28;20131;-76
2022/05/04 04:02:45;;;;;;;4.78;1.65;;;;;;;1.88;51.18;100741.47;5093014;28;20089;-77
2022/05/04 04:05:11;;;;;;;1.33;0.80;;;;;;;1.90;51.18;100745.59;5093994;28;20036;-77
2022/05/04 04:07:36;;;;;;;1.20;0.70;;;;;;;2.00;51.11;100748.63;5092657;28;20078;-76
2022/05/04 04:10:02;;;;;;;2.22;0.60;;;;;;;2.01;51.23;100750.28;5107382;28;20046;-77
2022/05/04 04:12:28;;;;;;;2.33;0.60;;;;;;;2.00;51.06;100762.16;5101575;28;20450;-77
2022/05/04 04:14:53;;;;;;;1.42;0.77;;;;;;;1.97;50.98;100757.22;5094965;28;20101;-77
2022/05/04 04:17:19;;;;;;;0.85;0.50;;;;;;;2.05;51.20;100758.78;5093603;28;20039;-79
2022/05/04 04:21:50;;;;;;;0.82;0.50;;;;;;;2.12;51.04;100765.00;5097568;28;20043;-78
2022/05/04 04:22:31;;;;;;;1.90;0.88;;;;;;;2.23;50.89;100777.78;5115609;28;20097;-77
2022/05/04 04:24:56;;;;;;;4.45;0.80;;;;;;;2.42;50.65;100778.63;5115033;28;20405;-76
2022/05/04 04:27:22;;;;;;;1.70;0.90;;;;;;;2.46;50.88;100777.16;5109438;28;20048;-77
2022/05/04 04:29:48;;;;;;;3.30;0.77;;;;;;;2.49;50.60;100782.13;5094727;28;20068;-77
2022/05/04 04:32:14;;;;;;;5.20;0.90;;;;;;;2.51;50.56;100780.00;5102524;28;20039;-77
2022/05/04 04:34:40;;;;;;;3.47;0.60;;;;;;;2.51;50.59;100798.13;5103916;28;20035;-76
2022/05/04 04:37:06;;;;;;;2.00;0.90;;;;;;;2.54;50.83;100789.56;5096091;28;20068;-78
2022/05/04 04:39:32;;;;;;;3.05;0.70;;;;;;;2.59;50.96;100795.13;5096299;28;20067;-78
2022/05/04 04:41:57;;;;;;;0.80;0.80;;;;;;;2.62;50.33;100798.22;5094866;28;20047;-78
2022/05/04 04:44:23;;;;;;;2.08;0.98;;;;;;;2.62;50.67;100805.53;5096718;28;20069;-78
2022/05/04 04:46:49;;;;;;;1.75;0.90;;;;;;;2.69;50.74;100809.81;5092386;28;20480;-78
2022/05/04 04:49:15;;;;;;;1.20;0.80;;;;;;;2.79;50.63;100812.00;5077964;28;20046;-77
2022/05/04 04:51:40;;;;;;;4.22;1.00;;;;;;;2.98;49.78;100807.41;5077949;28;20043;-78
2022/05/04 04:54:06;;;;;;;1.27;0.82;;;;;;;3.00;49.52;100810.72;5115668;28;20031;-78
2022/05/04 04:56:32;;;;;;;2.45;1.38;;;;;;;3.07;49.88;100819.59;5103527;28;20036;-79
2022/05/04 04:58:57;;;;;;;1.52;1.02;;;;;;;3.02;49.50;100824.88;5092716;28;20074;-79
2022/05/04 05:01:23;;;;;;;3.40;0.90;;;;;;;3.02;49.73;100833.00;5095173;28;20048;-78
2022/05/04 05:03:49;;;;;;;1.35;1.05;;;;;;;3.30;49.50;100833.28;5096180;28;20036;-78
2022/05/04 05:06:15;;;;;;;0.82;0.70;;;;;;;3.51;48.47;100836.56;5094707;28;20063;-78
2022/05/04 05:08:43;;;;;;;2.65;0.73;;;;;;;3.61;48.65;100834.94;5106335;28;20074;-77
2022/05/04 05:11:09;;;;;;;2.03;1.00;;;;;;;3.79;48.43;100842.19;5114321;28;20036;-77
2022/05/04 05:16:06;;;;;;;2.08;1.02;;;;;;;3.92;48.05;100843.88;5094369;28;20105;-77
2022/05/04 05:16:20;;;;;;;1.70;0.90;;;;;;;4.02;47.83;100844.16;5103050;28;20063;-77
2022/05/04 05:18:46;;;;;;;1.05;1.00;;;;;;;4.06;47.63;100849.94;5079621;28;20135;-76
2022/05/04 05:21:11;;;;;;;1.80;0.93;;;;;;;4.20;47.25;100854.94;5114681;28;20089;-77
2022/05/04 05:23:37;;;;;;;2.17;1.27;;;;;;;4.43;47.21;100859.56;5096907;28;20037;-77
2022/05/04 05:26:02;;;;;;;0.85;0.77;;;;;;;4.54;46.31;100858.75;5112207;28;20051;-77
2022/05/04 05:28:28;;;;;;;2.33;0.80;;;;;;;4.51;45.84;100861.06;5104924;28;20047;-78
2022/05/04 05:30:54;;;;;;;2.92;0.55;;;;;;;4.45;46.47;100854.69;5094986;28;20070;-77
2022/05/04 05:33:19;;;;;;;0.80;0.50;;;;;;;4.37;46.56;100860.50;5096884;28;20096;-77
2022/05/04 05:35:45;;;;;;;1.83;0.75;;;;;;;4.45;46.65;100868.28;5110919;28;20667;-77
2022/05/04 05:38:11;;;;;;;3.38;0.70;;;;;;;4.54;46.47;100880.47;5092981;28;20038;-77
2022/05/04 05:40:36;;;;;;;2.13;0.60;;;;;;;4.73;45.97;100867.59;5093798;28;20042;-77
2022/05/04 05:43:02;;;;;;;3.20;0.80;;;;;;;4.77;45.90;100876.09;5097353;28;20153;-77
2022/05/04 05:45:28;;;;;;;1.27;0.70;;;;;;;4.88;45.76;100886.16;5094355;28;20058;-77
2022/05/04 05:47:53;;;;;;;1.45;0.70;;;;;;;5.01;46.01;100882.34;5093738;28;20047;-78
2022/05/04 05:50:19;;;;;;;1.98;0.90;;;;;;;5.26;45.51;100874.75;5091690;28;20036;-77
2022/05/04 05:52:44;;;;;;;2.25;0.60;;;;;;;5.38;45.15;100880.97;5107480;28;20046;-77
2022/05/04 05:55:10;;;;;;;3.10;0.93;;;;;;;5.67;44.52;100879.09;5095771;28;20054;-76
2022/05/04 05:57:36;;;;;;;2.88;0.85;;;;;;;5.94;44.43;100884.00;5094836;28;20062;-77
2022/05/04 06:00:03;;;;;;;2.50;0.75;;;;;;;5.94;43.57;100894.88;5092313;28;20039;-78
2022/05/04 06:02:37;;;;;;;3.70;1.00;;;;;;;6.19;43.47;100881.72;5093826;28;20440;-77
2022/05/04 06:05:03;;;;;;;1.15;0.70;;;;;;;6.85;42.35;100880.03;5105795;28;20031;-77
2022/05/04 06:07:29;;;;;;;1.02;0.75;;;;;;;7.14;41.56;100879.91;5094904;28;20100;-77
2022/05/04 06:09:54;;;;;;;4.80;0.65;;;;;;;7.52;41.29;100888.03;5092409;28;20123;-77
2022/05/04 06:12:20;;;;;;;3.42;1.00;;;;;;;7.79;40.35;100888.06;5091695;28;20066;-77
2022/05/04 06:14:46;;;;;;;1.60;0.60;;;;;;;7.92;40.47;100888.72;5091447;28;20127;-77
2022/05/04 06:17:12;;;;;;;2.03;0.70;;;;;;;7.98;39.13;100896.72;5093069;28;20067;-77
2022/05/04 06:19:37;;;;;;;1.17;0.50;;;;;;;7.87;39.13;100900.44;5092400;28;20442;-77
2022/05/04 06:22:03;;;;;;;1.63;0.65;;;;;;;7.82;39.34;100903.13;5096221;28;20058;-77
2022/05/04 06:24:29;;;;;;;0.95;0.90;;;;;;;7.68;39.52;100894.50;5094706;28;20441;-77
2022/05/04 06:26:54;;;;;;;2.28;1.10;;;;;;;7.75;39.65;100897.84;5082659;28;20044;-78
2022/05/04 06:29:20;;;;;;;0.82;0.50;;;;;;;7.86;39.16;100909.72;5090870;28;20494;-77
2022/05/04 06:34:30;;;;;;;1.15;0.57;;;;;;;8.27;38.25;100915.59;5096262;28;20054;-78
2022/05/04 06:36:56;;;;;;;0.80;0.80;;;;;;;8.38;38.81;100917.38;5092015;28;20040;-77
2022/05/04 06:39:21;;;;;;;1.00;0.57;;;;;;;8.38;38.03;100917.38;5094688;28;20047;-77
2022/05/04 06:41:49;;;;;;;2.45;0.77;;;;;;;8.60;37.45;100915.38;5093957;28;20126;-77
2022/05/04 06:44:14;;;;;;;0.63;0.47;;;;;;;8.76;37.77;100925.34;5089983;28;20085;-77
2022/05/04 06:46:42;;;;;;;0.95;0.63;;;;;;;9.17;37.26;100922.06;5094205;28;20502;-77
2022/05/04 06:49:13;;;;;;;1.35;0.60;;;;;;;9.23;37.25;100921.84;5089751;28;20570;-78
2022/05/04 06:51:39;;;;;;;0.50;0.50;;;;;;;9.39;36.53;100925.50;5095470;28;20395;-77
2022/05/04 06:54:04;;;;;;;2.00;0.70;;;;;;;9.39;36.42;100939.19;5110316;28;20559;-77
2022/05/04 06:56:30;;;;;;;0.68;0.55;;;;;;;9.13;36.19;100940.09;5097642;28;20506;-77
2022/05/04 06:58:56;;;;;;;0.65;0.60;;;;;;;8.89;36.46;100945.16;5107917;28;20036;-77
2022/05/04 07:01:22;;;;;;;2.58;0.95;;;;;;;9.00;35.89;100938.66;5095908;28;20047;-77
2022/05/04 07:03:47;;;;;;;2.63;0.90;;;;;;;9.13;36.99;100935.47;5120403;27;20039;-77
2022/05/04 07:06:13;;;;;;;3.35;0.93;;;;;;;9.41;37.09;100938.91;5133572;27;20039;-77
2022/05/04 07:08:39;;;;;;;0.60;0.60;;;;;;;9.40;37.00;100937.25;5112614;28;21523;-77
2022/05/04 07:11:04;;;;;;;1.23;0.90;;;;;;;9.16;37.48;100956.81;5094474;28;20043;-77
2022/05/04 07:13:30;;;;;;;2.78;0.80;;;;;;;9.00;36.94;100957.81;5077405;28;20044;-77
2022/05/04 07:15:56;;;;;;;2.63;0.60;;;;;;;8.70;37.34;100963.88;5096714;28;20067;-76
2022/05/04 07:18:21;;;;;;;2.60;0.95;;;;;;;8.37;37.78;100964.94;5093729;28;20055;-77
2022/05/04 07:20:47;;;;;;;1.13;0.80;;;;;;;8.06;38.61;100963.78;5110660;28;20046;-77
2022/05/04 07:23:12;;;;;;;2.53;2.33;;;;;;;7.86;38.91;100967.09;5115500;28;20507;-77
2022/05/04 07:25:38;;;;;;;4.55;1.40;;;;;;;7.69;38.96;100974.53;5097472;28;20059;-77
2022/05/04 07:28:04;;;;;;;3.33;1.40;;;;;;;7.62;38.60;100982.06;5094077;28;20044;-77
2022/05/04 07:30:29;;;;;;;2.30;1.20;;;;;;;7.36;38.76;100972.72;5102461;28;20035;-77
2022/05/04 07:32:55;;;;;;;1.17;0.85;;;;;;;7.12;39.60;100977.56;5097373;28;20093;-76
2022/05/04 07:35:21;;;;;;;1.90;0.80;;;;;;;7.03;39.83;100985.34;5094957;28;20048;-77
2022/05/04 07:37:46;;;;;;;0.77;0.70;;;;;;;7.05;39.96;100985.91;5094728;28;20075;-78
2022/05/04 07:42:56;;;;;;;1.13;0.70;;;;;;;7.35;39.19;100982.81;5093617;28;20039;-77
2022/05/04 07:45:22;;;;;;;1.30;0.70;;;;;;;7.32;39.14;100988.78;5095438;28;20040;-77
2022/05/04 07:47:47;;;;;;;1.15;0.70;;;;;;;7.01;39.88;100986.66;5115390;27;20035;-77
2022/05/04 07:50:13;;;;;;;0.65;0.60;;;;;;;6.73;39.98;101010.22;5113259;28;20039;-77
2022/05/04 07:52:39;;;;;;;1.05;0.50;;;;;;;6.57;40.55;101011.84;5107450;28;20032;-77
2022/05/04 07:55:06;;;;;;;1.65;0.68;;;;;;;6.48;40.60;101007.88;5094921;28;20070;-77
2022/05/04 07:57:32;;;;;;;1.42;0.80;;;;;;;6.41;40.88;101009.06;5092257;28;20043;-77
2022/05/04 08:05:33;;;;;;;2.42;0.77;;;;;;;5.90;41.45;101021.69;5109667;27;20116;-77
2022/05/04 08:07:59;;;;;;;3.13;0.98;;;;;;;5.86;41.26;101026.78;5092422;28;20032;-77
2022/05/04 08:10:25;;;;;;;2.78;1.00;;;;;;;5.90;40.94;101022.56;5102958;27;20050;-76
2022/05/04 08:12:52;;;;;;;2.97;0.90;;;;;;;5.97;40.74;101025.13;5124460;27;20031;-76
2022/05/04 08:15:17;;;;;;;1.35;0.88;;;;;;;5.96;41.42;101031.66;5104111;28;20036;-76
2022/05/04 08:17:43;;;;;;;1.95;0.75;;;;;;;5.95;41.92;101039.00;5093337;28;20085;-76
2022/05/04 08:20:09;;;;;;;2.40;1.50;;;;;;;6.20;41.84;101029.69;5111747;27;20115;-76
2022/05/04 08:22:35;;;;;;;2.45;0.80;;;;;;;6.82;40.65;101030.56;5124152;27;20035;-76
2022/05/04 08:25:01;;;;;;;0.80;0.75;;;;;;;7.37;39.88;101032.53;5115988;27;20040;-76
2022/05/04 08:27:26;;;;;;;0.55;0.52;;;;;;;7.71;38.17;101025.09;5129946;27;20062;-76
2022/05/04 08:29:52;;;;;;;2.85;0.63;;;;;;;7.76;37.33;101036.09;5118992;27;20435;-75
2022/05/04 08:32:18;;;;;;;0.80;0.68;;;;;;;7.64;37.14;101040.84;5114706;28;20078;-75
2022/05/04 08:34:43;;;;;;;3.78;0.70;;;;;;;7.40;37.26;101039.38;5114038;28;20040;-76
2022/05/04 08:37:09;;;;;;;1.45;0.60;;;;;;;7.20;37.08;101038.00;5082617;28;20082;-76
2022/05/04 08:39:34;;;;;;;2.03;0.73;;;;;;;7.09;37.15;101047.09;5074029;28;20043;-76
2022/05/04 08:42:02;;;;;;;1.35;0.80;;;;;;;7.05;37.02;101050.56;5091812;28;20490;-76
2022/05/04 08:44:27;;;;;;;3.15;0.88;;;;;;;7.01;36.90;101052.97;5092089;28;20043;-76
2022/05/04 08:46:55;;;;;;;2.42;0.95;;;;;;;6.98;37.04;101055.38;5092338;28;20040;-76
2022/05/04 08:49:20;;;;;;;3.08;0.90;;;;;;;6.87;36.93;101046.19;5091618;28;20414;-76
2022/05/04 08:51:48;;;;;;;0.90;0.90;;;;;;;6.77;36.96;101052.31;5101416;28;20490;-76
2022/05/04 08:54:14;;;;;;;2.28;0.85;;;;;;;6.73;37.36;101058.47;5111379;28;20043;-76
2022/05/04 08:56:40;;;;;;;1.25;0.43;;;;;;;6.60;37.94;101051.44;5098849;28;20379;-76
2022/05/04 08:59:07;;;;;;;1.50;0.75;;;;;;;6.45;38.09;101057.44;5114359;27;20050;-76
2022/05/04 09:01:39;;;;;;;3.22;0.50;;;;;;;6.36;37.80;101072.50;5114027;28;20039;-77
2022/05/04 09:04:06;;;;;;;0.98;0.50;;;;;;;6.23;37.39;101080.97;5097207;28;20035;-76
2022/05/04 09:06:33;;;;;;;1.30;0.63;;;;;;;6.07;37.18;101082.53;5114766;28;20547;-76
2022/05/04 09:09:10;;;;;;;0.40;0.40;;;;;;;5.98;37.98;101090.28;5113356;28;20035;-76
2022/05/04 09:11:45;;;;;;;1.98;1.00;;;;;;;5.95;37.82;101089.94;5110760;28;20139;-76
2022/05/04 09:14:13;;;;;;;1.27;0.73;;;;;;;5.87;37.99;101093.78;5095737;28;20075;-77
2022/05/04 09:16:39;;;;;;;0.60;0.60;;;;;;;5.77;38.23;101099.03;5092881;28;20036;-77
2022/05/04 09:19:10;;;;;;;0.82;0.75;;;;;;;5.78;38.75;101094.41;5098564;28;20447;-77
2022/05/04 09:21:36;;;;;;;0.40;0.40;;;;;;;5.80;38.54;101100.44;5092561;28;20418;-78
2022/05/04 09:24:02;;;;;;;1.10;1.02;;;;;;;5.79;39.26;101107.78;5103938;28;20044;-79
2022/05/04 09:26:28;;;;;;;0.57;0.57;;;;;;;5.79;39.61;101093.34;5091790;28;20498;-81
2022/05/04 09:29:01;;;;;;;2.50;0.63;;;;;;;5.73;39.48;101098.69;5095758;28;20046;-75
2022/05/04 09:31:28;;;;;;;3.88;0.80;;;;;;;5.71;39.94;101108.97;5110388;28;20156;-73
2022/05/04 09:33:59;;;;;;;2.13;0.70;;;;;;;5.66;40.05;101119.75;5086224;28;20036;-74
2022/05/04 09:44:53;;;;;;;0.50;0.50;;;;;;;5.70;40.35;101120.09;5091381;28;20051;-73
2022/05/04 09:45:10;;;;;;;2.70;0.70;;;;;;;5.40;42.26;101126.50;5095417;28;20508;-73
2022/05/04 09:47:46;;;;;;;1.85;0.70;;;;;;;5.39;41.93;101134.91;5108002;28;20042;-73
2022/05/04 09:50:13;;;;;;;3.70;0.82;;;;;;;5.36;41.35;101124.44;5111397;28;20092;-73
2022/05/04 09:52:41;;;;;;;0.98;0.90;;;;;;;5.40;40.30;101123.78;5110101;28;20414;-73
2022/05/04 09:55:19;;;;;;;2.20;0.90;;;;;;;5.44;40.38;101115.97;5100664;28;20043;-73
2022/05/04 09:57:47;;;;;;;3.55;0.80;;;;;;;5.70;40.84;101123.66;5109523;28;20035;-73
2022/05/04 10:00:15;;;;;;;1.05;0.68;;;;;;;6.01;41.17;101121.66;5110632;28;20077;-72
2022/05/04 10:02:42;;;;;;;3.08;0.70;;;;;;;6.22;40.80;101117.47;5109986;28;20032;-73
2022/05/04 10:05:08;;;;;;;1.75;0.68;;;;;;;6.35;41.34;101115.28;5109772;28;20435;-73
2022/05/04 10:07:37;;;;;;;1.05;0.68;;;;;;;6.48;41.43;101119.66;5101582;28;20051;-73
2022/05/04 10:10:05;;;;;;;0.82;0.82;;;;;;;6.59;40.61;101123.38;5089847;28;20502;-72
2022/05/04 10:12:30;;;;;;;0.73;0.50;;;;;;;6.50;39.87;101130.31;5090903;28;20047;-72
2022/05/04 10:14:58;;;;;;;0.60;0.60;;;;;;;6.34;39.00;101132.72;5107582;28;20043;-72
2022/05/04 10:17:25;;;;;;;1.23;0.60;;;;;;;6.18;39.61;101125.28;5111132;28;20036;-71
2022/05/04 10:20:15;;;;;;;3.25;0.95;;;;;;;6.18;40.75;101129.91;5111427;28;20517;-72
2022/05/04 10:23:02;;;;;;;2.58;0.50;;;;;;;6.09;40.61;101134.91;5091107;28;20055;-72
2022/05/04 10:25:33;;;;;;;1.33;0.70;;;;;;;6.09;41.37;101134.09;5090612;28;20048;-72
2022/05/04 10:28:07;;;;;;;0.73;0.60;;;;;;;6.04;42.13;101145.69;5096617;28;20069;-72
2022/05/04 10:30:36;;;;;;;0.55;0.47;;;;;;;6.03;42.00;101141.31;5115124;27;20047;-71
2022/05/04 10:33:06;;;;;;;1.67;0.40;;;;;;;6.07;42.54;101141.66;5126106;28;20043;-72
2022/05/04 10:35:34;;;;;;;0.82;0.65;;;;;;;6.18;42.91;101146.25;5101097;28;20048;-72
2022/05/04 10:38:00;;;;;;;2.35;0.52;;;;;;;6.27;42.71;101147.56;5114422;28;20066;-71
2022/05/04 10:40:31;;;;;;;0.50;0.50;;;;;;;6.16;41.75;101143.78;5103589;28;20494;-72
2022/05/04 10:43:02;;;;;;;1.55;0.73;;;;;;;6.10;41.59;101152.09;5094597;28;20509;-72
2022/05/04 10:45:36;;;;;;;1.10;0.60;;;;;;;6.03;41.56;101153.03;5108123;28;20451;-72
2022/05/04 10:48:20;;;;;;;1.25;0.60;;;;;;;5.96;41.87;101143.34;5096135;28;20459;-72
2022/05/04 10:51:11;;;;;;;0.90;0.60;;;;;;;5.91;41.37;101154.13;5116551;27;20060;-72
2022/05/04 10:53:42;;;;;;;1.55;0.60;;;;;;;5.87;41.63;101147.44;5074305;28;20048;-73
2022/05/04 10:56:11;;;;;;;2.05;0.70;;;;;;;5.93;41.64;101152.00;5108371;28;20035;-73
2022/05/04 10:58:53;;;;;;;1.70;0.63;;;;;;;5.96;41.63;101152.34;5100257;28;20059;-73
2022/05/04 11:01:20;;;;;;;1.52;0.80;;;;;;;5.96;42.16;101170.56;5110057;28;20039;-72
2022/05/04 11:04:10;;;;;;;3.45;0.70;;;;;;;6.05;42.05;101160.97;5102052;28;20123;-75
2022/05/04 11:06:58;;;;;;;2.35;0.70;;;;;;;6.03;41.83;101168.53;5104132;28;20035;-73
2022/05/04 11:09:31;;;;;;;0.70;0.67;;;;;;;5.87;42.45;101167.34;5107511;27;20032;-74
2022/05/04 11:12:01;;;;;;;0.57;0.52;;;;;;;5.70;43.06;101175.38;5114608;28;20031;-73
2022/05/04 11:14:27;;;;;;;1.88;0.70;;;;;;;5.62;43.70;101181.19;5113772;27;20043;-73
2022/05/04 11:16:57;;;;;;;0.95;0.57;;;;;;;5.61;44.54;101171.38;5126957;27;20031;-74
2022/05/04 11:19:25;;;;;;;0.80;0.43;;;;;;;5.72;44.05;101162.34;5114262;28;20040;-74
2022/05/04 11:21:51;;;;;;;1.00;0.52;;;;;;;5.83;43.58;101168.06;5105677;28;20098;-74
2022/05/04 11:24:17;;;;;;;0.50;0.43;;;;;;;5.89;42.00;101180.72;5099682;27;20440;-73
2022/05/04 11:26:45;;;;;;;0.57;0.40;;;;;;;5.87;41.55;101171.94;5101789;28;20152;-73
2022/05/04 11:29:14;;;;;;;1.70;0.30;;;;;;;5.92;40.16;101174.84;5093872;28;20383;-75
2022/05/04 11:31:52;;;;;;;1.75;0.40;;;;;;;5.98;40.91;101166.53;5113049;28;20035;-74
2022/05/04 11:34:18;;;;;;;0.50;0.43;;;;;;;5.99;41.84;101184.53;5113901;28;20054;-74
2022/05/04 11:36:45;;;;;;;0.95;0.43;;;;;;;5.99;41.41;101178.28;5109152;28;20035;-73
2022/05/04 11:39:22;;;;;;;1.33;0.45;;;;;;;5.91;41.45;101175.91;5096328;28;20047;-73
2022/05/04 11:41:50;;;;;;;5.38;0.77;;;;;;;5.84;41.50;101173.25;5111729;27;20110;-73
2022/05/04 11:44:21;;;;;;;0.90;0.90;;;;;;;5.80;41.29;101179.44;5099163;28;20032;-73
2022/05/04 11:46:48;;;;;;;2.17;0.90;;;;;;;5.78;41.05;101193.28;5102998;28;20035;-73
2022/05/04 11:49:14;;;;;;;1.10;0.60;;;;;;;5.79;41.57;101185.94;5113000;28;20076;-73
2022/05/04 11:51:41;;;;;;;2.50;0.70;;;;;;;5.82;41.51;101196.34;5113330;28;20035;-73
2022/05/04 11:54:07;;;;;;;2.03;0.70;;;;;;;5.87;41.41;101197.28;5112704;28;20050;-73
2022/05/04 11:56:34;;;;;;;4.03;0.70;;;;;;;6.01;41.61;101189.75;5113261;28;20131;-73
2022/05/04 11:59:00;;;;;;;0.60;0.60;;;;;;;6.12;41.07;101188.94;5094810;28;20035;-73
2022/05/04 12:01:26;;;;;;;4.03;0.80;;;;;;;6.12;41.06;101182.66;5104811;28;20513;-73